createdAt,value
2023-01-22T00:01:00.187Z,95890
2023-01-22T00:02:09.957Z,95892
2023-01-22T00:03:18.597Z,95892
2023-01-22T00:04:28.273Z,95889
2023-01-22T00:05:35.944Z,95894
2023-01-22T00:06:44.589Z,95891
2023-01-22T00:07:54.306Z,95890
2023-01-22T00:09:02.986Z,95897
2023-01-22T00:10:11.663Z,95893
2023-01-22T00:11:21.352Z,95890
2023-01-22T00:12:30.029Z,95887
2023-01-22T00:13:39.724Z,95885
2023-01-22T00:14:49.433Z,95888
2023-01-22T00:15:58.084Z,95884
2023-01-22T00:17:07.800Z,95886
2023-01-22T00:18:15.455Z,95886
2023-01-22T00:19:24.125Z,95888
2023-01-22T00:20:32.784Z,95884
2023-01-22T00:21:42.496Z,95885
2023-01-22T00:22:52.157Z,95883
2023-01-22T00:24:01.839Z,95881
2023-01-22T00:25:10.497Z,95888
2023-01-22T00:26:20.165Z,95889
2023-01-22T00:27:27.845Z,95891
2023-01-22T00:28:35.492Z,95891
2023-01-22T00:29:45.157Z,95888
2023-01-22T00:30:52.949Z,95889
2023-01-22T00:32:01.615Z,95883
2023-01-22T00:33:10.182Z,95887
2023-01-22T00:34:18.916Z,95890
2023-01-22T00:35:28.581Z,95888
2023-01-22T00:36:37.269Z,95883
2023-01-22T00:37:45.928Z,95885
2023-01-22T00:38:54.585Z,95886
2023-01-22T00:40:04.250Z,95883
2023-01-22T00:41:13.909Z,95882
2023-01-22T00:42:22.587Z,95878
2023-01-22T00:43:31.242Z,95883
2023-01-22T00:44:40.898Z,95882
2023-01-22T00:45:48.548Z,95879
2023-01-22T00:46:57.207Z,95882
2023-01-22T00:48:05.902Z,95879
2023-01-22T00:49:15.628Z,95880
2023-01-22T00:50:25.381Z,95882
2023-01-22T00:51:34.035Z,95883
2023-01-22T00:52:43.708Z,95884
2023-01-22T00:53:53.401Z,95881
2023-01-22T00:55:03.059Z,95884
2023-01-22T00:56:12.811Z,95883
2023-01-22T00:57:22.468Z,95880
2023-01-22T00:58:31.113Z,95882
2023-01-22T00:59:40.806Z,95880
2023-01-22T01:00:48.492Z,95883
2023-01-22T01:01:58.175Z,95881
2023-01-22T01:03:07.745Z,95883
2023-01-22T01:04:15.404Z,95886
2023-01-22T01:05:24.120Z,95886
2023-01-22T01:06:32.765Z,95886
2023-01-22T01:07:42.411Z,95882
2023-01-22T01:08:52.081Z,95885
2023-01-22T01:10:01.747Z,95885
2023-01-22T01:11:09.398Z,95887
2023-01-22T01:12:19.043Z,95883
2023-01-22T01:13:26.807Z,95891
2023-01-22T01:14:35.449Z,95883
2023-01-22T01:15:44.132Z,95886
2023-01-22T01:16:52.774Z,95889
2023-01-22T01:18:02.426Z,95885
2023-01-22T01:19:11.136Z,95887
2023-01-22T01:20:20.912Z,95891
2023-01-22T01:21:30.453Z,95889
2023-01-22T01:22:39.168Z,95888
2023-01-22T01:23:47.881Z,95890
2023-01-22T01:24:56.528Z,95893
2023-01-22T01:26:05.174Z,95896
2023-01-22T01:27:14.836Z,95894
2023-01-22T01:28:22.496Z,95893
2023-01-22T01:29:32.327Z,95892
2023-01-22T01:30:42.026Z,95891
2023-01-22T01:31:50.812Z,95894
2023-01-22T01:33:00.460Z,95893
2023-01-22T01:34:09.163Z,95889
2023-01-22T01:35:18.892Z,95892
2023-01-22T01:36:47.018Z,95892
2023-01-22T01:37:38.350Z,95889
2023-01-22T01:38:48.010Z,95886
2023-01-22T01:39:55.798Z,95894
2023-01-22T01:41:04.509Z,95897
2023-01-22T01:42:14.186Z,95898
2023-01-22T01:43:22.907Z,95901
2023-01-22T01:44:31.741Z,95892
2023-01-22T01:45:40.539Z,95890
2023-01-22T01:46:50.277Z,95891
2023-01-22T01:48:00.223Z,95892
2023-01-22T01:49:08.000Z,95890
2023-01-22T01:50:17.043Z,95891
2023-01-22T01:51:26.445Z,95890
2023-01-22T01:52:35.106Z,95894
2023-01-22T01:53:44.775Z,95894
2023-01-22T01:54:53.426Z,95891
2023-01-22T01:56:02.065Z,95891
2023-01-22T01:57:11.771Z,95894
2023-01-22T01:58:19.410Z,95894
2023-01-22T01:59:29.065Z,95890
2023-01-22T02:00:38.722Z,95889
2023-01-22T02:01:46.554Z,95891
2023-01-22T02:02:55.091Z,95886
2023-01-22T02:04:04.750Z,95890
2023-01-22T02:05:13.438Z,95885
2023-01-22T02:06:23.095Z,95887
2023-01-22T02:07:31.771Z,95883
2023-01-22T02:08:41.521Z,95886
2023-01-22T02:09:51.131Z,95888
2023-01-22T02:10:59.816Z,95887
2023-01-22T02:12:08.463Z,95889
2023-01-22T02:13:17.118Z,95892
2023-01-22T02:14:26.797Z,95889
2023-01-22T02:15:36.455Z,95885
2023-01-22T02:16:44.220Z,95893
2023-01-22T02:17:53.979Z,95889
2023-01-22T02:19:03.558Z,95890
2023-01-22T02:20:11.223Z,95890
2023-01-22T02:21:19.864Z,95887
2023-01-22T02:22:28.525Z,95887
2023-01-22T02:23:38.192Z,95887
2023-01-22T02:24:48.007Z,95887
2023-01-22T02:25:55.690Z,95892
2023-01-22T02:27:04.341Z,95891
2023-01-22T02:28:13.993Z,95892
2023-01-22T02:29:22.647Z,95892
2023-01-22T02:30:32.386Z,95895
2023-01-22T02:31:41.072Z,95892
2023-01-22T02:32:50.630Z,95890
2023-01-22T02:34:00.445Z,95892
2023-01-22T02:35:10.005Z,95895
2023-01-22T02:36:18.654Z,95896
2023-01-22T02:37:28.359Z,95895
2023-01-22T02:38:37.039Z,95892
2023-01-22T02:39:46.692Z,95893
2023-01-22T02:40:55.342Z,95890
2023-01-22T02:42:04.003Z,95890
2023-01-22T02:43:13.684Z,95893
2023-01-22T02:44:21.348Z,95895
2023-01-22T02:45:31.099Z,95895
2023-01-22T02:46:40.753Z,95894
2023-01-22T02:47:49.419Z,95895
2023-01-22T02:48:59.227Z,95889
2023-01-22T02:50:08.182Z,95892
2023-01-22T02:51:17.736Z,95893
2023-01-22T02:52:27.383Z,95891
2023-01-22T02:53:36.036Z,95889
2023-01-22T02:54:44.743Z,95891
2023-01-22T02:55:54.410Z,95888
2023-01-22T02:57:02.067Z,95889
2023-01-22T02:58:11.733Z,95890
2023-01-22T02:59:20.419Z,95889
2023-01-22T03:00:29.202Z,95890
2023-01-22T03:01:38.858Z,95887
2023-01-22T03:02:46.539Z,95887
2023-01-22T03:03:55.207Z,95890
2023-01-22T03:05:04.869Z,95886
2023-01-22T03:06:12.661Z,95886
2023-01-22T03:07:21.193Z,95886
2023-01-22T03:08:29.937Z,95889
2023-01-22T03:09:37.723Z,95885
2023-01-22T03:10:47.396Z,95889
2023-01-22T03:11:56.115Z,95888
2023-01-22T03:13:04.790Z,95886
2023-01-22T03:14:14.534Z,95889
2023-01-22T03:15:23.465Z,95889
2023-01-22T03:16:32.376Z,95884
2023-01-22T03:17:41.097Z,95887
2023-01-22T03:18:50.784Z,95886
2023-01-22T03:20:00.498Z,95889
2023-01-22T03:21:09.174Z,95888
2023-01-22T03:22:18.951Z,95892
2023-01-22T03:23:28.536Z,95888
2023-01-22T03:24:37.210Z,95892
2023-01-22T03:25:44.872Z,95895
2023-01-22T03:26:54.539Z,95894
2023-01-22T03:28:03.197Z,95892
2023-01-22T03:29:12.879Z,95895
2023-01-22T03:30:20.656Z,95894
2023-01-22T03:31:30.304Z,95896
2023-01-22T03:32:39.960Z,95893
2023-01-22T03:33:48.700Z,95894
2023-01-22T03:34:57.508Z,95893
2023-01-22T03:36:05.287Z,95899
2023-01-22T03:37:14.009Z,95896
2023-01-22T03:38:22.901Z,95897
2023-01-22T03:39:32.517Z,95898
2023-01-22T03:40:43.217Z,95895
2023-01-22T03:41:51.887Z,95901
2023-01-22T03:42:59.527Z,95899
2023-01-22T03:44:09.243Z,95899
2023-01-22T03:45:18.970Z,95897
2023-01-22T03:46:27.691Z,95905
2023-01-22T03:47:37.343Z,95906
2023-01-22T03:48:47.080Z,95904
2023-01-22T03:49:56.741Z,95904
2023-01-22T03:51:05.435Z,95904
2023-01-22T03:52:14.076Z,95906
2023-01-22T03:53:23.759Z,95910
2023-01-22T03:54:32.551Z,95908
2023-01-22T03:55:41.160Z,95911
2023-01-22T03:56:49.820Z,95914
2023-01-22T03:57:59.573Z,95914
2023-01-22T03:59:09.241Z,95909
2023-01-22T04:00:19.208Z,95915
2023-01-22T04:01:27.606Z,95915
2023-01-22T04:02:37.280Z,95917
2023-01-22T04:03:44.925Z,95915
2023-01-22T04:04:53.594Z,95916
2023-01-22T04:06:03.264Z,95914
2023-01-22T04:07:12.938Z,95917
2023-01-22T04:08:22.602Z,95914
2023-01-22T04:09:30.278Z,95916
2023-01-22T04:10:40.065Z,95920
2023-01-22T04:11:49.618Z,95918
2023-01-22T04:12:59.286Z,95923
2023-01-22T04:14:07.948Z,95923
2023-01-22T04:15:16.623Z,95921
2023-01-22T04:16:25.354Z,95931
2023-01-22T04:17:33.960Z,95928
2023-01-22T04:18:42.643Z,95929
2023-01-22T04:19:50.270Z,95929
2023-01-22T04:20:59.960Z,95931
2023-01-22T04:22:08.620Z,95929
2023-01-22T04:23:17.282Z,95930
2023-01-22T04:24:26.946Z,95922
2023-01-22T04:25:35.622Z,95929
2023-01-22T04:26:45.420Z,95933
2023-01-22T04:27:53.977Z,95935
2023-01-22T04:29:02.611Z,95934
2023-01-22T04:30:12.292Z,95929
2023-01-22T04:31:21.065Z,95938
2023-01-22T04:32:30.716Z,95932
2023-01-22T04:33:39.365Z,95929
2023-01-22T04:34:49.192Z,95936
2023-01-22T04:35:58.972Z,95938
2023-01-22T04:37:07.665Z,95935
2023-01-22T04:38:16.460Z,95938
2023-01-22T04:39:25.274Z,95938
2023-01-22T04:40:33.095Z,95939
2023-01-22T04:41:41.816Z,95940
2023-01-22T04:42:50.769Z,95946
2023-01-22T04:44:00.425Z,95943
2023-01-22T04:45:10.171Z,95944
2023-01-22T04:46:19.835Z,95943
2023-01-22T04:47:28.502Z,95946
2023-01-22T04:48:38.164Z,95946
2023-01-22T04:49:45.862Z,95943
2023-01-22T04:50:54.594Z,95942
2023-01-22T04:52:03.198Z,95947
2023-01-22T04:53:12.847Z,95946
2023-01-22T04:54:22.507Z,95947
2023-01-22T04:55:30.229Z,95949
2023-01-22T04:56:38.903Z,95951
2023-01-22T04:57:48.553Z,95948
2023-01-22T04:59:02.166Z,95952
2023-01-22T05:00:04.987Z,95952
2023-01-22T05:01:14.629Z,95948
2023-01-22T05:02:23.288Z,95952
2023-01-22T05:03:32.913Z,95949
2023-01-22T05:04:40.564Z,95952
2023-01-22T05:05:50.230Z,95948
2023-01-22T05:06:59.908Z,95948
2023-01-22T05:08:07.563Z,95945
2023-01-22T05:09:17.256Z,95947
2023-01-22T05:10:26.968Z,95951
2023-01-22T05:11:36.603Z,95948
2023-01-22T05:12:46.290Z,95954
2023-01-22T05:13:54.966Z,95951
2023-01-22T05:15:12.210Z,95951
2023-01-22T05:16:15.376Z,95949
2023-01-22T05:17:24.934Z,95952
2023-01-22T05:18:33.620Z,95951
2023-01-22T05:19:42.267Z,95954
2023-01-22T05:20:50.931Z,95955
2023-01-22T05:22:00.578Z,95958
2023-01-22T05:23:09.244Z,95954
2023-01-22T05:24:17.923Z,95957
2023-01-22T05:25:27.613Z,95960
2023-01-22T05:26:35.249Z,95962
2023-01-22T05:27:43.905Z,95966
2023-01-22T05:28:52.577Z,95963
2023-01-22T05:30:01.234Z,95963
2023-01-22T05:31:10.058Z,95962
2023-01-22T05:32:19.738Z,95967
2023-01-22T05:33:29.281Z,95964
2023-01-22T05:34:36.934Z,95962
2023-01-22T05:35:46.626Z,95968
2023-01-22T05:36:56.270Z,95966
2023-01-22T05:38:03.942Z,95965
2023-01-22T05:39:12.615Z,95967
2023-01-22T05:40:22.281Z,95968
2023-01-22T05:41:30.955Z,95963
2023-01-22T05:42:40.618Z,95968
2023-01-22T05:43:49.285Z,95973
2023-01-22T05:44:57.927Z,95971
2023-01-22T05:46:07.634Z,95975
2023-01-22T05:47:15.275Z,95976
2023-01-22T05:48:25.050Z,95973
2023-01-22T05:49:34.620Z,95978
2023-01-22T05:50:43.336Z,95973
2023-01-22T05:51:53.023Z,95976
2023-01-22T05:53:00.716Z,95978
2023-01-22T05:54:09.381Z,95976
2023-01-22T05:55:19.052Z,95977
2023-01-22T05:56:27.728Z,95980
2023-01-22T05:57:36.373Z,95981
2023-01-22T05:58:45.089Z,95980
2023-01-22T05:59:53.804Z,95981
2023-01-22T06:01:03.477Z,95985
2023-01-22T06:02:11.155Z,95988
2023-01-22T06:03:20.802Z,95988
2023-01-22T06:04:31.693Z,95985
2023-01-22T06:05:40.252Z,95986
2023-01-22T06:06:49.934Z,95987
2023-01-22T06:07:58.585Z,95989
2023-01-22T06:09:07.249Z,95991
2023-01-22T06:10:17.348Z,95987
2023-01-22T06:11:25.588Z,95988
2023-01-22T06:12:35.266Z,95985
2023-01-22T06:13:44.964Z,95991
2023-01-22T06:14:52.659Z,95992
2023-01-22T06:16:02.366Z,95996
2023-01-22T06:17:11.013Z,95992
2023-01-22T06:18:20.687Z,95995
2023-01-22T06:19:30.371Z,95998
2023-01-22T06:20:38.161Z,95997
2023-01-22T06:21:46.759Z,95994
2023-01-22T06:22:56.488Z,95998
2023-01-22T06:24:04.139Z,96000
2023-01-22T06:25:11.803Z,95997
2023-01-22T06:26:21.458Z,95999
2023-01-22T06:27:31.139Z,96006
2023-01-22T06:28:40.811Z,96006
2023-01-22T06:29:48.465Z,96008
2023-01-22T06:30:57.208Z,96006
2023-01-22T06:32:06.816Z,96011
2023-01-22T06:33:14.484Z,96012
2023-01-22T06:34:23.179Z,96007
2023-01-22T06:35:31.829Z,96005
2023-01-22T06:36:43.608Z,96009
2023-01-22T06:37:52.184Z,96004
2023-01-22T06:39:01.908Z,96008
2023-01-22T06:40:10.563Z,96004
2023-01-22T06:41:20.227Z,96010
2023-01-22T06:42:27.891Z,96014
2023-01-22T06:43:35.526Z,96013
2023-01-22T06:44:44.217Z,96012
2023-01-22T06:45:52.889Z,96012
2023-01-22T06:47:02.582Z,96011
2023-01-22T06:48:10.219Z,96013
2023-01-22T06:49:18.879Z,96014
2023-01-22T06:50:27.565Z,96018
2023-01-22T06:51:35.244Z,96017
2023-01-22T06:52:44.008Z,96018
2023-01-22T06:53:52.554Z,96024
2023-01-22T06:55:01.208Z,96023
2023-01-22T06:56:10.934Z,96026
2023-01-22T06:57:19.616Z,96025
2023-01-22T06:58:29.278Z,96027
2023-01-22T06:59:38.934Z,96031
2023-01-22T07:00:48.601Z,96036
2023-01-22T07:01:57.365Z,96035
2023-01-22T07:03:05.956Z,96037
2023-01-22T07:04:14.624Z,96037
2023-01-22T07:05:24.290Z,96032
2023-01-22T07:06:33.935Z,96036
2023-01-22T07:07:43.643Z,96036
2023-01-22T07:08:53.446Z,96040
2023-01-22T07:10:02.994Z,96040
2023-01-22T07:11:11.768Z,96043
2023-01-22T07:12:21.457Z,96044
2023-01-22T07:13:30.236Z,96046
2023-01-22T07:14:39.919Z,96044
2023-01-22T07:15:47.648Z,96041
2023-01-22T07:16:56.256Z,96042
2023-01-22T07:18:05.892Z,96044
2023-01-22T07:19:14.576Z,96051
2023-01-22T07:20:23.265Z,96045
2023-01-22T07:21:31.908Z,96044
2023-01-22T07:22:40.553Z,96047
2023-01-22T07:23:50.214Z,96047
2023-01-22T07:24:58.050Z,96045
2023-01-22T07:26:06.587Z,96044
2023-01-22T07:27:16.256Z,96045
2023-01-22T07:28:24.911Z,96043
2023-01-22T07:29:34.583Z,96043
2023-01-22T07:30:43.310Z,96042
2023-01-22T07:31:53.032Z,96046
2023-01-22T07:33:01.631Z,96043
2023-01-22T07:34:10.270Z,96042
2023-01-22T07:35:19.927Z,96042
2023-01-22T07:36:29.634Z,96044
2023-01-22T07:37:39.288Z,96040
2023-01-22T07:38:48.974Z,96042
2023-01-22T07:39:56.634Z,96039
2023-01-22T07:41:14.073Z,96041
2023-01-22T07:42:16.932Z,96043
2023-01-22T07:43:26.582Z,96041
2023-01-22T07:44:36.244Z,96045
2023-01-22T07:45:43.895Z,96053
2023-01-22T07:46:53.654Z,96048
2023-01-22T07:48:02.241Z,96045
2023-01-22T07:49:10.941Z,96044
2023-01-22T07:50:20.662Z,96049
2023-01-22T07:51:30.337Z,96047
2023-01-22T07:52:39.987Z,96045
2023-01-22T07:53:49.740Z,96044
2023-01-22T07:54:57.400Z,96045
2023-01-22T07:56:06.103Z,96049
2023-01-22T07:57:15.891Z,96049
2023-01-22T07:58:23.425Z,96047
2023-01-22T07:59:32.117Z,96052
2023-01-22T08:00:40.797Z,96056
2023-01-22T08:01:50.440Z,96055
2023-01-22T08:03:01.101Z,96054
2023-01-22T08:04:09.767Z,96059
2023-01-22T08:05:18.467Z,96060
2023-01-22T08:06:28.138Z,96057
2023-01-22T08:07:35.799Z,96068
2023-01-22T08:08:45.469Z,96062
2023-01-22T08:09:54.133Z,96063
2023-01-22T08:11:02.793Z,96064
2023-01-22T08:12:12.440Z,96061
2023-01-22T08:13:22.224Z,96065
2023-01-22T08:14:30.758Z,96061
2023-01-22T08:15:40.425Z,96068
2023-01-22T08:16:49.128Z,96068
2023-01-22T08:17:57.756Z,96067
2023-01-22T08:19:06.418Z,96075
2023-01-22T08:20:15.104Z,96074
2023-01-22T08:21:24.785Z,96077
2023-01-22T08:22:33.471Z,96077
2023-01-22T08:23:44.245Z,96075
2023-01-22T08:24:52.774Z,96078
2023-01-22T08:26:00.431Z,96078
2023-01-22T08:27:09.080Z,96078
2023-01-22T08:28:17.814Z,96074
2023-01-22T08:29:27.601Z,96076
2023-01-22T08:30:45.276Z,96081
2023-01-22T08:31:46.879Z,96085
2023-01-22T08:32:55.425Z,96077
2023-01-22T08:34:04.115Z,96085
2023-01-22T08:35:13.774Z,96087
2023-01-22T08:36:23.444Z,96080
2023-01-22T08:37:33.105Z,96079
2023-01-22T08:38:41.734Z,96080
2023-01-22T08:39:51.426Z,96083
2023-01-22T08:41:00.058Z,96079
2023-01-22T08:42:08.696Z,96088
2023-01-22T08:43:18.363Z,96088
2023-01-22T08:44:27.032Z,96086
2023-01-22T08:45:35.845Z,96091
2023-01-22T08:46:45.378Z,96092
2023-01-22T08:47:55.024Z,96084
2023-01-22T08:49:04.725Z,96091
2023-01-22T08:50:13.381Z,96088
2023-01-22T08:51:22.126Z,96093
2023-01-22T08:52:31.732Z,96098
2023-01-22T08:53:40.430Z,96098
2023-01-22T08:54:49.097Z,96103
2023-01-22T08:55:57.736Z,96103
2023-01-22T08:57:07.454Z,96103
2023-01-22T08:58:17.145Z,96108
2023-01-22T08:59:25.808Z,96107
2023-01-22T09:00:35.503Z,96108
2023-01-22T09:01:45.269Z,96114
2023-01-22T09:02:52.833Z,96109
2023-01-22T09:04:01.482Z,96115
2023-01-22T09:05:10.144Z,96111
2023-01-22T09:06:18.795Z,96114
2023-01-22T09:07:28.448Z,96117
2023-01-22T09:08:37.126Z,96121
2023-01-22T09:09:46.791Z,96124
2023-01-22T09:10:56.448Z,96124
2023-01-22T09:12:05.154Z,96124
2023-01-22T09:13:13.782Z,96126
2023-01-22T09:14:22.486Z,96132
2023-01-22T09:15:31.207Z,96134
2023-01-22T09:16:40.962Z,96138
2023-01-22T09:17:48.669Z,96144
2023-01-22T09:18:58.237Z,96137
2023-01-22T09:20:07.960Z,96137
2023-01-22T09:21:16.690Z,96135
2023-01-22T09:22:26.482Z,96146
2023-01-22T09:23:36.129Z,96144
2023-01-22T09:24:45.781Z,96142
2023-01-22T09:25:55.446Z,96148
2023-01-22T09:27:04.097Z,96146
2023-01-22T09:28:13.761Z,96150
2023-01-22T09:29:22.418Z,96148
2023-01-22T09:30:32.124Z,96150
2023-01-22T09:31:41.812Z,96149
2023-01-22T09:32:49.426Z,96150
2023-01-22T09:33:58.237Z,96155
2023-01-22T09:35:07.802Z,96153
2023-01-22T09:36:17.457Z,96151
2023-01-22T09:37:27.136Z,96153
2023-01-22T09:38:35.830Z,96163
2023-01-22T09:39:44.479Z,96159
2023-01-22T09:40:54.148Z,96162
2023-01-22T09:42:01.791Z,96160
2023-01-22T09:43:10.510Z,96161
2023-01-22T09:44:20.221Z,96162
2023-01-22T09:45:28.870Z,96161
2023-01-22T09:46:38.546Z,96157
2023-01-22T09:47:46.204Z,96155
2023-01-22T09:48:55.865Z,96160
2023-01-22T09:50:05.635Z,96160
2023-01-22T09:51:13.217Z,96161
2023-01-22T09:52:22.830Z,96167
2023-01-22T09:53:31.478Z,96164
2023-01-22T09:54:41.238Z,96165
2023-01-22T09:55:51.419Z,96168
2023-01-22T09:57:00.398Z,96166
2023-01-22T09:58:09.043Z,96162
2023-01-22T09:59:19.691Z,96164
2023-01-22T10:00:28.396Z,96169
2023-01-22T10:01:38.175Z,96173
2023-01-22T10:02:46.826Z,96171
2023-01-22T10:03:54.422Z,96173
2023-01-22T10:05:04.076Z,96170
2023-01-22T10:06:11.878Z,96168
2023-01-22T10:07:21.431Z,96167
2023-01-22T10:08:31.281Z,96168
2023-01-22T10:09:39.771Z,96163
2023-01-22T10:10:48.436Z,96166
2023-01-22T10:11:57.115Z,96166
2023-01-22T10:13:05.784Z,96158
2023-01-22T10:14:15.489Z,96159
2023-01-22T10:15:24.176Z,96160
2023-01-22T10:16:32.856Z,96165
2023-01-22T10:17:42.542Z,96158
2023-01-22T10:18:52.178Z,96166
2023-01-22T10:20:00.820Z,96171
2023-01-22T10:21:09.480Z,96171
2023-01-22T10:22:19.337Z,96170
2023-01-22T10:23:28.945Z,96168
2023-01-22T10:24:36.595Z,96174
2023-01-22T10:25:45.270Z,96174
2023-01-22T10:26:54.972Z,96168
2023-01-22T10:28:02.624Z,96169
2023-01-22T10:29:11.296Z,96170
2023-01-22T10:30:20.316Z,96165
2023-01-22T10:31:29.797Z,96168
2023-01-22T10:32:39.295Z,96164
2023-01-22T10:33:46.980Z,96160
2023-01-22T10:34:55.663Z,96165
2023-01-22T10:36:04.326Z,96164
2023-01-22T10:37:12.000Z,96166
2023-01-22T10:38:20.779Z,96166
2023-01-22T10:39:30.332Z,96164
2023-01-22T10:40:40.050Z,96167
2023-01-22T10:41:49.685Z,96164
2023-01-22T10:42:58.335Z,96165
2023-01-22T10:44:06.979Z,96162
2023-01-22T10:45:16.637Z,96164
2023-01-22T10:46:25.356Z,96157
2023-01-22T10:47:33.022Z,96156
2023-01-22T10:48:42.701Z,96163
2023-01-22T10:49:51.376Z,96166
2023-01-22T10:51:01.082Z,96165
2023-01-22T10:52:09.737Z,96164
2023-01-22T10:53:19.398Z,96163
2023-01-22T10:54:29.183Z,96162
2023-01-22T10:55:36.728Z,96162
2023-01-22T10:56:45.381Z,96163
2023-01-22T10:57:55.052Z,96163
2023-01-22T10:59:04.708Z,96165
2023-01-22T11:00:14.406Z,96168
2023-01-22T11:01:23.083Z,96166
2023-01-22T11:02:31.723Z,96164
2023-01-22T11:03:41.483Z,96161
2023-01-22T11:04:50.148Z,96163
2023-01-22T11:05:59.822Z,96162
2023-01-22T11:07:08.484Z,96161
2023-01-22T11:08:17.146Z,96158
2023-01-22T11:09:26.847Z,96158
2023-01-22T11:10:35.607Z,96154
2023-01-22T11:11:45.175Z,96159
2023-01-22T11:12:54.890Z,96163
2023-01-22T11:14:04.567Z,96163
2023-01-22T11:15:13.327Z,96161
2023-01-22T11:16:21.999Z,96166
2023-01-22T11:17:30.682Z,96163
2023-01-22T11:18:40.364Z,96164
2023-01-22T11:19:49.027Z,96162
2023-01-22T11:20:57.704Z,96169
2023-01-22T11:22:08.369Z,96166
2023-01-22T11:23:16.031Z,96165
2023-01-22T11:24:25.717Z,96165
2023-01-22T11:25:34.375Z,96161
2023-01-22T11:26:44.179Z,96162
2023-01-22T11:27:53.727Z,96161
2023-01-22T11:29:02.379Z,96167
2023-01-22T11:30:12.040Z,96167
2023-01-22T11:31:21.787Z,96166
2023-01-22T11:32:30.390Z,96163
2023-01-22T11:33:40.069Z,96162
2023-01-22T11:34:47.707Z,96161
2023-01-22T11:35:57.382Z,96160
2023-01-22T11:37:06.093Z,96165
2023-01-22T11:38:14.764Z,96166
2023-01-22T11:39:24.424Z,96162
2023-01-22T11:40:32.082Z,96162
2023-01-22T11:41:41.737Z,96162
2023-01-22T11:42:51.511Z,96163
2023-01-22T11:43:59.077Z,96164
2023-01-22T11:45:08.757Z,96161
2023-01-22T11:46:17.482Z,96161
2023-01-22T11:47:27.123Z,96158
2023-01-22T11:48:36.790Z,96157
2023-01-22T11:49:46.508Z,96159
2023-01-22T11:50:56.232Z,96159
2023-01-22T11:52:05.903Z,96151
2023-01-22T11:53:15.580Z,96154
2023-01-22T11:54:25.268Z,96152
2023-01-22T11:55:33.969Z,96153
2023-01-22T11:56:42.633Z,96153
2023-01-22T11:57:52.299Z,96150
2023-01-22T11:59:05.855Z,96152
2023-01-22T12:00:09.786Z,96152
2023-01-22T12:01:19.431Z,96155
2023-01-22T12:02:28.151Z,96150
2023-01-22T12:03:36.943Z,96150
2023-01-22T12:04:45.515Z,96144
2023-01-22T12:05:54.203Z,96150
2023-01-22T12:07:02.961Z,96147
2023-01-22T12:08:11.635Z,96147
2023-01-22T12:09:21.317Z,96146
2023-01-22T12:10:31.003Z,96141
2023-01-22T12:11:39.669Z,96141
2023-01-22T12:12:49.388Z,96136
2023-01-22T12:13:58.080Z,96140
2023-01-22T12:15:07.745Z,96143
2023-01-22T12:16:17.570Z,96141
2023-01-22T12:17:26.097Z,96144
2023-01-22T12:18:35.834Z,96144
2023-01-22T12:19:45.516Z,96145
2023-01-22T12:20:55.200Z,96143
2023-01-22T12:22:03.878Z,96144
2023-01-22T12:23:13.576Z,96140
2023-01-22T12:24:22.249Z,96151
2023-01-22T12:25:31.936Z,96145
2023-01-22T12:26:40.715Z,96145
2023-01-22T12:27:49.389Z,96143
2023-01-22T12:28:59.056Z,96146
2023-01-22T12:30:08.724Z,96153
2023-01-22T12:31:17.471Z,96147
2023-01-22T12:32:27.215Z,96144
2023-01-22T12:33:36.764Z,96153
2023-01-22T12:34:46.438Z,96149
2023-01-22T12:35:56.103Z,96147
2023-01-22T12:37:05.770Z,96150
2023-01-22T12:38:15.446Z,96146
2023-01-22T12:39:25.087Z,96146
2023-01-22T12:40:34.795Z,96146
2023-01-22T12:41:43.481Z,96148
2023-01-22T12:42:52.164Z,96146
2023-01-22T12:44:00.843Z,96149
2023-01-22T12:45:11.517Z,96148
2023-01-22T12:46:21.214Z,96156
2023-01-22T12:47:30.994Z,96155
2023-01-22T12:48:40.579Z,96155
2023-01-22T12:49:50.266Z,96156
2023-01-22T12:50:59.981Z,96160
2023-01-22T12:52:09.617Z,96160
2023-01-22T12:53:19.346Z,96160
2023-01-22T12:54:28.025Z,96160
2023-01-22T12:55:36.679Z,96169
2023-01-22T12:56:47.344Z,96164
2023-01-22T12:57:56.001Z,96169
2023-01-22T12:59:05.704Z,96166
2023-01-22T13:00:15.364Z,96169
2023-01-22T13:01:24.040Z,96170
2023-01-22T13:02:33.868Z,96168
2023-01-22T13:03:42.421Z,96174
2023-01-22T13:04:52.122Z,96171
2023-01-22T13:06:01.813Z,96168
2023-01-22T13:07:11.498Z,96172
2023-01-22T13:08:19.260Z,96170
2023-01-22T13:09:28.832Z,96171
2023-01-22T13:10:37.534Z,96173
2023-01-22T13:11:48.185Z,96170
2023-01-22T13:12:56.861Z,96174
2023-01-22T13:14:14.710Z,96172
2023-01-22T13:15:17.241Z,96176
2023-01-22T13:16:24.954Z,96173
2023-01-22T13:17:34.590Z,96179
2023-01-22T13:18:43.386Z,96179
2023-01-22T13:19:51.937Z,96179
2023-01-22T13:21:01.615Z,96184
2023-01-22T13:22:10.271Z,96179
2023-01-22T13:23:21.586Z,96181
2023-01-22T13:24:29.584Z,96183
2023-01-22T13:25:38.262Z,96182
2023-01-22T13:26:47.912Z,96181
2023-01-22T13:27:55.599Z,96182
2023-01-22T13:29:05.293Z,96185
2023-01-22T13:30:13.945Z,96187
2023-01-22T13:31:22.737Z,96184
2023-01-22T13:32:32.290Z,96184
2023-01-22T13:33:40.964Z,96182
2023-01-22T13:34:50.777Z,96183
2023-01-22T13:36:00.326Z,96184
2023-01-22T13:37:09.001Z,96184
2023-01-22T13:38:17.699Z,96186
2023-01-22T13:39:27.420Z,96186
2023-01-22T13:40:46.552Z,96187
2023-01-22T13:41:46.735Z,96189
2023-01-22T13:42:56.409Z,96190
2023-01-22T13:44:05.077Z,96192
2023-01-22T13:45:14.785Z,96195
2023-01-22T13:46:23.512Z,96193
2023-01-22T13:47:32.168Z,96196
2023-01-22T13:48:41.840Z,96193
2023-01-22T13:49:51.552Z,96196
2023-01-22T13:51:01.391Z,96195
2023-01-22T13:52:09.917Z,96199
2023-01-22T13:53:18.581Z,96202
2023-01-22T13:54:28.302Z,96201
2023-01-22T13:55:36.959Z,96201
2023-01-22T13:56:45.699Z,96197
2023-01-22T13:57:54.466Z,96202
2023-01-22T13:59:03.107Z,96197
2023-01-22T14:00:12.774Z,96199
2023-01-22T14:01:21.437Z,96202
2023-01-22T14:02:29.107Z,96195
2023-01-22T14:03:38.784Z,96201
2023-01-22T14:04:46.460Z,96202
2023-01-22T14:05:56.120Z,96207
2023-01-22T14:07:04.940Z,96211
2023-01-22T14:08:13.567Z,96215
2023-01-22T14:09:23.283Z,96211
2023-01-22T14:10:32.941Z,96210
2023-01-22T14:11:41.595Z,96214
2023-01-22T14:12:52.267Z,96218
2023-01-22T14:14:00.939Z,96217
2023-01-22T14:15:10.594Z,96218
2023-01-22T14:16:20.313Z,96214
2023-01-22T14:17:30.017Z,96219
2023-01-22T14:18:39.642Z,96218
2023-01-22T14:19:47.374Z,96220
2023-01-22T14:20:56.039Z,96218
2023-01-22T14:22:05.702Z,96220
2023-01-22T14:23:13.500Z,96224
2023-01-22T14:24:23.048Z,96220
2023-01-22T14:25:32.769Z,96222
2023-01-22T14:26:41.438Z,96218
2023-01-22T14:27:51.128Z,96223
2023-01-22T14:28:59.788Z,96222
2023-01-22T14:30:09.456Z,96223
2023-01-22T14:31:19.248Z,96226
2023-01-22T14:32:26.883Z,96230
2023-01-22T14:33:36.514Z,96228
2023-01-22T14:34:45.186Z,96228
2023-01-22T14:35:53.846Z,96232
2023-01-22T14:37:03.558Z,96229
2023-01-22T14:38:12.236Z,96228
2023-01-22T14:39:22.042Z,96229
2023-01-22T14:40:31.580Z,96235
2023-01-22T14:41:40.281Z,96238
2023-01-22T14:42:48.951Z,96238
2023-01-22T14:43:58.610Z,96240
2023-01-22T14:45:07.286Z,96235
2023-01-22T14:46:17.975Z,96238
2023-01-22T14:47:26.673Z,96242
2023-01-22T14:48:36.414Z,96244
2023-01-22T14:49:46.094Z,96245